Race Rocks, British Columbia

5:06 PM PDT on August 03, 2015 (GMT -0700)
Metchosin-Clapham | | Change Station
CLOSE
Current Station
Personal Weather Station
Location: Victoria, BC
Elevation: 430 ft
Nearby Weather Stations

Elev 430 ft 48.37 °N, 123.57 °W | Updated 15 seconds ago

Scattered Clouds
Scattered Clouds
71.3 °F
Feels Like 76 °F
N
5.0
Wind Variable Wind from West
Gusts 22.0 mph

Today
High -- | Low -- °F
--% Chance of Precip.
Yesterday
High -- | Low -- °F
Precip. -- in
5:51 AM 8:47 PM
Waning Gibbous, 83% visible
Pressure 29.87 in
Visibility 15.0 miles
Clouds Few 2000 ft
Few 14000 ft
Scattered Clouds 25000 ft
Heat Index 76 °F
Dew Point 55 °F
Humidity 57%
Rainfall 0.00 in
Snow Depth Not available.
UV 5 out of 12
Pollen Not available.
Air Quality Not available.
Flu Activity Not available.
METAR CYWH 032300Z 25010KT 190V280 15SM FEW020 FEW140 SCT250 21/13 A2987 RMK CU1AC1CI2 SLP113 DENSITY ALT 700FT

More Conditions Fewer Conditions

Pressure 29.87 in
Visibility 15.0 miles
Clouds Few 2000 ft
Few 14000 ft
Scattered Clouds 25000 ft
Heat Index 76 °F
Dew Point 55 °F
Humidity 57%
Rainfall 0.00 in
Snow Depth Not available.
UV 5 out of 12
Pollen Not available.
Air Quality Not available.
Flu Activity Not available.
METAR CYWH 032300Z 25010KT 190V280 15SM FEW020 FEW140 SCT250 21/13 A2987 RMK CU1AC1CI2 SLP113 DENSITY ALT 700FT

More Conditions Fewer Conditions

10-Day Weather Forecast

×

Almanac

Astronomy

Aug. 03, 2015 Rise Set
Actual Time
Civil Twilight
Nautical Twilight
Astronomical Twilight
Moon
Length of Visible Light
Length of Day
Tomorrow will be .
, % of the Moon is Illuminated

Today's Extremes

Country Highs Country Lows

Community

WunderPhotos

Upload Photos

1,843,788 photos uploaded!

WunderBlogs® & News

Nearby

Air Quality

  Air Quality AQ Index Pollutant
Not available.

Snow Depth

Station Depth Elevation

Earthquake Activity

City Distance Mag. Time & Date
Minimum magnitude displayed is 2.5.

Coastal Water Temperatures

Place Temperature

Stations

Nearby Weather Stations

Station Location Temp. Windchill Dew Point Humidity Wind Precip. Elev Updated Type